createdAt,value
2023-05-07T00:00:30.524Z,80.12
2023-05-07T00:03:04.635Z,79.79
2023-05-07T00:05:34.168Z,79.68
2023-05-07T00:08:03.069Z,79.82
2023-05-07T00:10:34.650Z,80.33
2023-05-07T00:13:09.547Z,80.04
2023-05-07T00:15:38.215Z,80.22
2023-05-07T00:18:08.452Z,80.42
2023-05-07T00:20:44.339Z,80.68
2023-05-07T00:23:17.883Z,80.86
2023-05-07T00:25:50.266Z,81.49
2023-05-07T00:28:43.526Z,82.34
2023-05-07T00:31:12.214Z,82.85
2023-05-07T00:33:48.198Z,82.15
2023-05-07T00:36:18.498Z,82.27
2023-05-07T00:38:47.001Z,82.85
2023-05-07T00:41:16.081Z,83.13
2023-05-07T00:43:46.102Z,82.78
2023-05-07T00:46:21.277Z,83.82
2023-05-07T00:48:50.650Z,82.91
2023-05-07T00:51:28.968Z,83.28
2023-05-07T00:53:57.380Z,83.34
2023-05-07T00:56:29.337Z,83.69
2023-05-07T00:59:04.984Z,83.71
2023-05-07T01:01:34.345Z,83.10
2023-05-07T01:04:06.141Z,84.58
2023-05-07T01:06:54.067Z,83.62
2023-05-07T01:09:24.741Z,83.71
2023-05-07T01:12:01.341Z,84.29
2023-05-07T01:14:39.425Z,83.84
2023-05-07T01:17:09.658Z,83.71
2023-05-07T01:19:42.816Z,83.04
2023-05-07T01:22:12.875Z,83.76
2023-05-07T01:24:52.290Z,83.32
2023-05-07T01:27:21.305Z,82.76
2023-05-07T01:29:53.115Z,82.53
2023-05-07T01:32:30.164Z,81.99
2023-05-07T01:35:04.648Z,81.44
2023-05-07T01:37:36.285Z,81.40
2023-05-07T01:40:09.104Z,82.08
2023-05-07T01:42:41.357Z,82.70
2023-05-07T01:45:11.429Z,82.11
2023-05-07T01:47:41.684Z,82.05
2023-05-07T01:50:14.772Z,82.09
2023-05-07T01:52:44.213Z,82.61
2023-05-07T01:55:17.012Z,82.46
2023-05-07T01:57:46.006Z,83.74
2023-05-07T02:00:15.883Z,83.43
2023-05-07T02:02:54.345Z,82.78
2023-05-07T02:05:23.810Z,82.53
2023-05-07T02:08:01.986Z,83.23
2023-05-07T02:10:33.262Z,82.44
2023-05-07T02:13:08.840Z,82.74
2023-05-07T02:15:39.294Z,81.93
2023-05-07T02:18:11.352Z,82.10
2023-05-07T02:20:50.037Z,81.61
2023-05-07T02:23:20.595Z,83.04
2023-05-07T02:25:54.271Z,82.61
2023-05-07T02:28:27.674Z,82.82
2023-05-07T02:30:59.934Z,82.89
2023-05-07T02:33:29.354Z,82.15
2023-05-07T02:35:58.611Z,81.72
2023-05-07T02:38:30.996Z,81.90
2023-05-07T02:41:02.060Z,82.74
2023-05-07T02:43:35.217Z,82.90
2023-05-07T02:46:19.594Z,82.70
2023-05-07T02:48:50.844Z,83.38
2023-05-07T02:51:26.030Z,83.93
2023-05-07T02:53:55.394Z,84.02
2023-05-07T02:56:26.068Z,84.27
2023-05-07T02:58:57.198Z,84.04
2023-05-07T03:01:26.603Z,83.90
2023-05-07T03:03:58.100Z,84.43
2023-05-07T03:06:27.785Z,85.10
2023-05-07T03:08:58.150Z,84.02
2023-05-07T03:11:30.742Z,84.29
2023-05-07T03:14:02.289Z,84.71
2023-05-07T03:16:31.678Z,84.19
2023-05-07T03:19:01.826Z,84.25
2023-05-07T03:21:36.447Z,84.31
2023-05-07T03:24:08.581Z,85.97
2023-05-07T03:26:40.247Z,86.60
2023-05-07T03:29:09.001Z,86.29
2023-05-07T03:31:44.532Z,86.06
2023-05-07T03:34:19.918Z,85.46
2023-05-07T03:36:49.092Z,86.02
2023-05-07T03:39:18.054Z,85.49
2023-05-07T03:41:49.559Z,85.99
2023-05-07T03:44:18.747Z,85.12
2023-05-07T03:46:48.617Z,85.75
2023-05-07T03:49:18.496Z,85.22
2023-05-07T03:51:47.583Z,85.40
2023-05-07T03:54:16.851Z,84.97
2023-05-07T03:56:45.873Z,84.65
2023-05-07T03:59:18.848Z,85.40
2023-05-07T04:01:52.034Z,84.66
2023-05-07T04:04:21.655Z,83.03
2023-05-07T04:06:50.697Z,79.74
2023-05-07T04:09:19.362Z,76.67
2023-05-07T04:11:48.470Z,75.53
2023-05-07T04:14:18.275Z,72.70
2023-05-07T04:16:48.040Z,65.60
2023-05-07T04:19:17.051Z,64.54
2023-05-07T04:21:48.744Z,68.48
2023-05-07T04:24:17.805Z,62.71
2023-05-07T04:26:49.669Z,57.93
2023-05-07T04:29:23.114Z,59.49
2023-05-07T04:34:54.118Z,63.53
2023-05-07T04:37:25.168Z,60.73
2023-05-07T04:40:02.072Z,60.94
2023-05-07T04:42:33.986Z,55.21
2023-05-07T04:45:24.401Z,55.80
2023-05-07T04:48:01.477Z,60.58
2023-05-07T04:50:37.020Z,61.33
2023-05-07T04:53:13.198Z,62.97
2023-05-07T04:55:45.955Z,62.92
2023-05-07T04:58:14.671Z,63.61
2023-05-07T05:00:53.150Z,64.40
2023-05-07T05:03:30.425Z,62.36
2023-05-07T05:06:11.026Z,62.08
2023-05-07T05:08:44.526Z,57.29
2023-05-07T05:11:18.337Z,56.12
2023-05-07T05:13:52.986Z,53.13
2023-05-07T05:16:24.815Z,51.91
2023-05-07T05:18:56.328Z,52.10
2023-05-07T05:21:26.026Z,50.75
2023-05-07T05:23:58.963Z,50.97
2023-05-07T05:26:28.054Z,50.39
2023-05-07T05:28:57.000Z,48.43
2023-05-07T05:31:30.240Z,46.96
2023-05-07T05:34:01.955Z,44.73
2023-05-07T05:36:30.913Z,46.43
2023-05-07T05:39:01.264Z,44.31
2023-05-07T05:41:34.569Z,40.75
2023-05-07T05:44:04.604Z,43.12
2023-05-07T05:46:37.153Z,42.12
2023-05-07T05:49:06.138Z,41.46
2023-05-07T05:51:36.203Z,41.83
2023-05-07T05:54:05.804Z,41.56
2023-05-07T05:56:34.306Z,41.17
2023-05-07T05:59:03.424Z,41.45
2023-05-07T06:01:33.706Z,38.40
2023-05-07T06:04:05.608Z,38.30
2023-05-07T06:06:34.385Z,33.82
2023-05-07T06:09:03.790Z,37.04
2023-05-07T06:11:35.207Z,36.56
2023-05-07T06:14:04.897Z,33.11
2023-05-07T06:16:34.857Z,36.34
2023-05-07T06:19:04.434Z,34.80
2023-05-07T06:21:32.784Z,31.83
2023-05-07T06:24:01.582Z,31.63
2023-05-07T06:26:30.176Z,31.60
2023-05-07T06:28:58.679Z,32.57
2023-05-07T06:31:32.696Z,28.62
2023-05-07T06:34:03.455Z,28.61
2023-05-07T06:36:32.385Z,28.59
2023-05-07T06:39:02.785Z,27.02
2023-05-07T06:41:32.115Z,24.63
2023-05-07T06:44:00.809Z,24.60
2023-05-07T06:46:30.980Z,29.81
2023-05-07T06:49:02.300Z,29.06
2023-05-07T06:51:33.178Z,28.78
2023-05-07T06:54:01.457Z,27.44
2023-05-07T06:56:30.595Z,28.34
2023-05-07T06:58:59.750Z,28.93
2023-05-07T07:01:31.444Z,30.62
2023-05-07T07:04:00.779Z,32.00
2023-05-07T07:06:29.456Z,28.30
2023-05-07T07:08:59.943Z,26.46
2023-05-07T07:11:31.587Z,27.40
2023-05-07T07:14:02.029Z,29.62
2023-05-07T07:16:30.846Z,26.73
2023-05-07T07:19:02.763Z,27.78
2023-05-07T07:21:33.722Z,31.16
2023-05-07T07:24:04.030Z,31.57
2023-05-07T07:26:32.435Z,34.68
2023-05-07T07:29:02.940Z,35.35
2023-05-07T07:31:32.404Z,36.57
2023-05-07T07:34:06.993Z,34.66
2023-05-07T07:36:45.509Z,36.06
2023-05-07T07:39:17.321Z,37.21
2023-05-07T07:41:53.781Z,36.38
2023-05-07T07:44:25.130Z,34.82
2023-05-07T07:46:54.171Z,36.48
2023-05-07T07:49:23.203Z,35.53
2023-05-07T07:51:52.774Z,35.32
2023-05-07T07:54:23.478Z,35.27
2023-05-07T07:56:52.692Z,36.63
2023-05-07T07:59:23.632Z,35.20
2023-05-07T08:01:55.525Z,35.61
2023-05-07T08:04:24.768Z,35.29
2023-05-07T08:06:55.492Z,34.77
2023-05-07T08:09:26.089Z,36.66
2023-05-07T08:11:54.710Z,37.93
2023-05-07T08:14:24.175Z,38.09
2023-05-07T08:16:52.938Z,37.51
2023-05-07T08:19:21.531Z,38.59
2023-05-07T08:21:51.203Z,35.88
2023-05-07T08:24:24.949Z,36.04
2023-05-07T08:26:54.644Z,36.21
2023-05-07T08:29:23.026Z,36.33
2023-05-07T08:31:52.116Z,35.29
2023-05-07T08:34:20.897Z,35.43
2023-05-07T08:36:49.678Z,35.99
2023-05-07T08:39:19.918Z,34.50
2023-05-07T08:41:51.037Z,35.40
2023-05-07T08:44:25.496Z,37.15
2023-05-07T08:46:56.495Z,39.34
2023-05-07T08:49:26.937Z,36.62
2023-05-07T08:51:56.260Z,39.06
2023-05-07T08:54:24.824Z,37.61
2023-05-07T08:56:53.750Z,39.15
2023-05-07T08:59:23.903Z,35.40
2023-05-07T09:01:53.234Z,36.22
2023-05-07T09:04:22.102Z,35.05
2023-05-07T09:06:53.091Z,31.59
2023-05-07T09:09:22.271Z,31.13
2023-05-07T09:11:51.986Z,33.39
2023-05-07T09:14:24.533Z,31.42
2023-05-07T09:16:55.394Z,32.82
2023-05-07T09:19:26.353Z,31.73
2023-05-07T09:22:02.256Z,31.61
2023-05-07T09:24:39.656Z,36.32
2023-05-07T09:27:11.280Z,36.05
2023-05-07T09:29:40.235Z,35.57
2023-05-07T09:32:11.481Z,34.09
2023-05-07T09:34:47.380Z,32.91
2023-05-07T09:37:16.749Z,33.63
2023-05-07T09:39:48.087Z,35.76
2023-05-07T09:42:17.398Z,37.77
2023-05-07T09:44:46.930Z,36.10
2023-05-07T09:47:23.350Z,38.24
2023-05-07T09:49:57.951Z,40.72
2023-05-07T09:52:30.265Z,39.25
2023-05-07T09:55:03.777Z,38.71
2023-05-07T09:57:36.960Z,38.27
2023-05-07T10:00:10.243Z,36.78
2023-05-07T10:02:47.940Z,37.62
2023-05-07T10:05:17.359Z,35.44
2023-05-07T10:07:46.868Z,38.07
2023-05-07T10:10:17.192Z,36.28
2023-05-07T10:12:45.884Z,37.46
2023-05-07T10:15:16.679Z,37.27
2023-05-07T10:17:48.024Z,35.53
2023-05-07T10:20:18.234Z,35.79
2023-05-07T10:22:50.829Z,35.38
2023-05-07T10:25:26.519Z,37.90
2023-05-07T10:27:58.059Z,33.66
2023-05-07T10:30:41.067Z,36.56
2023-05-07T10:33:14.995Z,36.07
2023-05-07T10:35:48.094Z,35.59
2023-05-07T10:38:17.561Z,30.28
2023-05-07T10:40:47.956Z,31.27
2023-05-07T10:43:29.830Z,30.91
2023-05-07T10:46:19.357Z,33.09
2023-05-07T10:49:16.930Z,30.72
2023-05-07T10:51:47.038Z,30.41
2023-05-07T10:55:16.426Z,32.09
2023-05-07T10:57:45.387Z,34.17
2023-05-07T11:00:46.613Z,33.75
2023-05-07T11:03:17.426Z,34.75
2023-05-07T11:05:50.946Z,33.44
2023-05-07T11:08:19.974Z,35.09
2023-05-07T11:10:55.362Z,32.72
2023-05-07T11:13:48.705Z,31.66
2023-05-07T11:16:23.132Z,31.59
2023-05-07T11:18:53.949Z,33.24
2023-05-07T11:21:38.933Z,34.56
2023-05-07T11:24:09.383Z,32.09
2023-05-07T11:26:48.235Z,32.04
2023-05-07T11:29:21.786Z,30.96
2023-05-07T11:31:59.002Z,30.18
2023-05-07T11:34:31.413Z,30.17
2023-05-07T11:37:08.541Z,29.55
2023-05-07T11:39:40.418Z,33.80
2023-05-07T11:42:10.109Z,32.90
2023-05-07T11:44:49.679Z,35.03
2023-05-07T11:47:21.785Z,31.81
2023-05-07T11:49:53.743Z,30.35
2023-05-07T11:52:28.497Z,31.22
2023-05-07T11:54:59.136Z,32.53
2023-05-07T11:57:29.637Z,33.02
2023-05-07T11:59:58.969Z,32.07
2023-05-07T12:02:29.760Z,32.06
2023-05-07T12:05:06.748Z,32.30
2023-05-07T12:07:37.628Z,33.77
2023-05-07T12:10:11.613Z,33.68
2023-05-07T12:12:44.297Z,32.46
2023-05-07T12:15:18.910Z,32.72
2023-05-07T12:17:48.921Z,32.03
2023-05-07T12:20:18.923Z,32.74
2023-05-07T12:22:53.308Z,32.88
2023-05-07T12:25:23.124Z,32.07
2023-05-07T12:28:03.025Z,30.84
2023-05-07T12:30:32.892Z,32.17
2023-05-07T12:33:01.445Z,33.25
2023-05-07T12:35:31.328Z,35.03
2023-05-07T12:38:05.895Z,34.35
2023-05-07T12:40:46.993Z,34.64
2023-05-07T12:43:19.987Z,33.37
2023-05-07T12:45:50.995Z,33.89
2023-05-07T12:48:22.424Z,33.03
2023-05-07T12:50:53.089Z,33.24
2023-05-07T12:53:25.171Z,33.28
2023-05-07T12:55:59.972Z,32.80
2023-05-07T12:58:31.156Z,32.81
2023-05-07T13:01:02.956Z,31.19
2023-05-07T13:03:34.076Z,31.57
2023-05-07T13:06:08.152Z,32.68
2023-05-07T13:08:41.932Z,33.11
2023-05-07T13:11:12.752Z,35.00
2023-05-07T13:13:46.427Z,34.60
2023-05-07T13:16:15.488Z,35.74
2023-05-07T13:18:47.696Z,33.98
2023-05-07T13:21:19.287Z,34.90
2023-05-07T13:23:50.769Z,34.25
2023-05-07T13:26:26.687Z,33.77
2023-05-07T13:28:56.782Z,34.39
2023-05-07T13:31:25.937Z,34.87
2023-05-07T13:34:08.741Z,34.72
2023-05-07T13:36:43.270Z,35.44
2023-05-07T13:39:14.538Z,34.27
2023-05-07T13:41:46.361Z,33.61
2023-05-07T13:44:18.873Z,33.70
2023-05-07T13:46:52.697Z,31.86
2023-05-07T13:49:21.865Z,32.45
2023-05-07T13:51:53.294Z,34.53
2023-05-07T13:54:26.052Z,34.24
2023-05-07T13:56:56.608Z,33.75
2023-05-07T13:59:27.189Z,32.81
2023-05-07T14:01:56.022Z,34.86
2023-05-07T14:04:24.446Z,34.39
2023-05-07T14:06:53.538Z,34.21
2023-05-07T14:09:23.308Z,33.56
2023-05-07T14:11:52.718Z,33.88
2023-05-07T14:14:22.121Z,34.15
2023-05-07T14:16:51.438Z,32.43
2023-05-07T14:19:24.762Z,33.13
2023-05-07T14:21:53.759Z,33.80
2023-05-07T14:24:36.970Z,35.46
2023-05-07T14:27:07.107Z,35.88
2023-05-07T14:29:38.029Z,36.20
2023-05-07T14:32:06.914Z,36.88
2023-05-07T14:34:39.136Z,36.60
2023-05-07T14:37:08.006Z,36.89
2023-05-07T14:39:38.576Z,36.88
2023-05-07T14:42:09.468Z,35.46
2023-05-07T14:44:38.239Z,36.09
2023-05-07T14:47:07.653Z,36.07
2023-05-07T14:49:36.291Z,36.23
2023-05-07T14:52:06.085Z,37.76
2023-05-07T14:54:38.896Z,39.08
2023-05-07T14:57:09.592Z,38.76
2023-05-07T14:59:38.306Z,38.15
2023-05-07T15:02:09.264Z,38.58
2023-05-07T15:04:39.980Z,39.28
2023-05-07T15:07:11.987Z,39.17
2023-05-07T15:09:42.133Z,39.50
2023-05-07T15:12:11.057Z,40.04
2023-05-07T15:14:40.029Z,39.76
2023-05-07T15:17:09.390Z,39.16
2023-05-07T15:19:38.785Z,38.66
2023-05-07T15:22:07.585Z,39.50
2023-05-07T15:24:37.410Z,40.05
2023-05-07T15:27:07.386Z,40.07
2023-05-07T15:29:36.232Z,39.56
2023-05-07T15:32:05.366Z,39.37
2023-05-07T15:34:34.278Z,38.61
2023-05-07T15:37:09.957Z,39.61
2023-05-07T15:39:38.947Z,39.29
2023-05-07T15:42:15.161Z,40.07
2023-05-07T15:44:49.425Z,40.30
2023-05-07T15:47:19.923Z,40.22
2023-05-07T15:50:03.345Z,40.07
2023-05-07T15:52:38.267Z,39.32
2023-05-07T15:55:11.329Z,39.88
2023-05-07T15:57:45.532Z,40.22
2023-05-07T16:00:17.352Z,40.83
2023-05-07T16:02:47.467Z,41.50
2023-05-07T16:05:23.933Z,41.25
2023-05-07T16:07:53.778Z,42.59
2023-05-07T16:10:26.567Z,42.48
2023-05-07T16:13:03.191Z,41.52
2023-05-07T16:15:32.194Z,42.31
2023-05-07T16:18:01.524Z,41.48
2023-05-07T16:20:31.678Z,43.15
2023-05-07T16:23:00.342Z,42.25
2023-05-07T16:25:29.446Z,41.58
2023-05-07T16:27:59.865Z,41.58
2023-05-07T16:30:28.844Z,43.17
2023-05-07T16:32:57.942Z,43.67
2023-05-07T16:35:26.744Z,43.36
2023-05-07T16:37:55.414Z,47.11
2023-05-07T16:40:25.129Z,48.59
2023-05-07T16:42:55.415Z,49.24
2023-05-07T16:45:25.697Z,51.04
2023-05-07T16:47:54.317Z,51.34
2023-05-07T16:50:25.513Z,50.83
2023-05-07T16:53:00.671Z,50.96
2023-05-07T16:55:30.878Z,51.68
2023-05-07T16:58:00.485Z,52.76
2023-05-07T17:00:38.103Z,52.20
2023-05-07T17:03:18.230Z,51.80
2023-05-07T17:05:47.352Z,51.92
2023-05-07T17:08:16.544Z,52.60
2023-05-07T17:10:48.945Z,52.09
2023-05-07T17:13:17.723Z,51.99
2023-05-07T17:15:51.418Z,51.54
2023-05-07T17:18:20.292Z,52.59
2023-05-07T17:20:49.698Z,53.36
2023-05-07T17:23:21.697Z,53.36
2023-05-07T17:25:50.891Z,54.31
2023-05-07T17:28:19.128Z,55.80
2023-05-07T17:30:48.962Z,53.96
2023-05-07T17:33:21.558Z,52.34
2023-05-07T17:35:50.754Z,51.56
2023-05-07T17:38:20.630Z,50.73
2023-05-07T17:40:50.231Z,50.29
2023-05-07T17:43:19.423Z,50.10
2023-05-07T17:45:52.891Z,50.50
2023-05-07T17:48:25.572Z,50.65
2023-05-07T17:50:57.862Z,50.93
2023-05-07T17:53:27.495Z,50.80
2023-05-07T17:55:56.254Z,51.19
2023-05-07T17:58:27.498Z,51.20
2023-05-07T18:00:57.443Z,51.03
2023-05-07T18:03:26.402Z,52.24
2023-05-07T18:05:55.144Z,52.48
2023-05-07T18:08:24.292Z,52.76
2023-05-07T18:10:52.961Z,53.50
2023-05-07T18:13:34.744Z,53.61
2023-05-07T18:16:07.109Z,54.10
2023-05-07T18:18:38.999Z,54.84
2023-05-07T18:21:10.200Z,54.24
2023-05-07T18:23:39.659Z,56.52
2023-05-07T18:26:10.899Z,56.57
2023-05-07T18:28:40.791Z,56.14
2023-05-07T18:31:12.165Z,56.32
2023-05-07T18:33:41.877Z,56.65
2023-05-07T18:36:11.155Z,57.07
2023-05-07T18:38:43.364Z,57.25
2023-05-07T18:41:12.295Z,57.66
2023-05-07T18:43:41.106Z,58.14
2023-05-07T18:46:16.002Z,58.25
2023-05-07T18:48:47.169Z,58.36
2023-05-07T18:51:22.095Z,58.83
2023-05-07T18:53:53.648Z,58.50
2023-05-07T18:56:25.408Z,58.91
2023-05-07T18:58:59.994Z,58.17
2023-05-07T19:01:32.217Z,59.72
2023-05-07T19:04:00.950Z,59.22
2023-05-07T19:06:34.526Z,59.39
2023-05-07T19:09:03.148Z,59.78
2023-05-07T19:11:36.916Z,59.83
2023-05-07T19:14:06.078Z,59.35
2023-05-07T19:16:36.644Z,60.06
2023-05-07T19:19:08.611Z,59.98
2023-05-07T19:21:39.032Z,59.91
2023-05-07T19:24:09.593Z,59.63
2023-05-07T19:26:39.990Z,60.00
2023-05-07T19:29:17.562Z,60.64
2023-05-07T19:31:48.684Z,60.09
2023-05-07T19:34:17.727Z,60.58
2023-05-07T19:36:47.610Z,60.26
2023-05-07T19:39:18.586Z,59.95
2023-05-07T19:41:48.209Z,60.10
2023-05-07T19:44:17.934Z,61.46
2023-05-07T19:46:52.939Z,61.11
2023-05-07T19:49:24.635Z,61.19
2023-05-07T19:51:59.091Z,60.78
2023-05-07T19:54:30.274Z,62.08
2023-05-07T19:57:02.369Z,61.79
2023-05-07T19:59:31.712Z,61.18
2023-05-07T20:02:02.070Z,61.59
2023-05-07T20:04:33.891Z,62.45
2023-05-07T20:07:02.758Z,62.63
2023-05-07T20:09:31.514Z,62.00
2023-05-07T20:12:02.292Z,62.43
2023-05-07T20:14:32.333Z,62.72
2023-05-07T20:17:03.043Z,63.01
2023-05-07T20:19:31.868Z,62.70
2023-05-07T20:22:01.367Z,62.48
2023-05-07T20:24:31.082Z,62.35
2023-05-07T20:27:00.973Z,62.83
2023-05-07T20:29:30.382Z,62.76
2023-05-07T20:31:59.809Z,62.90
2023-05-07T20:34:30.252Z,63.22
2023-05-07T20:36:58.949Z,62.84
2023-05-07T20:39:28.175Z,63.63
2023-05-07T20:41:58.124Z,63.38
2023-05-07T20:44:26.459Z,63.39
2023-05-07T20:46:58.815Z,62.88
2023-05-07T20:49:27.875Z,62.81
2023-05-07T20:51:58.288Z,62.48
2023-05-07T20:54:28.697Z,63.47
2023-05-07T20:57:00.730Z,64.30
2023-05-07T20:59:35.510Z,64.31
2023-05-07T21:02:04.622Z,64.29
2023-05-07T21:04:33.621Z,63.85
2023-05-07T21:07:07.090Z,63.65
2023-05-07T21:09:39.467Z,64.60
2023-05-07T21:12:09.160Z,64.38
2023-05-07T21:14:39.708Z,64.50
2023-05-07T21:17:09.334Z,64.97
2023-05-07T21:19:38.008Z,64.56
2023-05-07T21:22:08.213Z,64.89
2023-05-07T21:24:37.643Z,65.13
2023-05-07T21:27:06.232Z,64.67
2023-05-07T21:29:34.961Z,65.53
2023-05-07T21:32:04.458Z,65.34
2023-05-07T21:34:33.317Z,66.41
2023-05-07T21:37:01.671Z,64.82
2023-05-07T21:39:32.176Z,64.87
2023-05-07T21:42:01.292Z,65.65
2023-05-07T21:44:31.415Z,65.64
2023-05-07T21:47:00.579Z,64.97
2023-05-07T21:49:29.089Z,65.76
2023-05-07T21:51:57.663Z,65.01
2023-05-07T21:54:26.990Z,65.32
2023-05-07T21:56:56.723Z,64.93
2023-05-07T21:59:25.095Z,64.29
2023-05-07T22:01:54.545Z,64.61
2023-05-07T22:04:22.952Z,64.62
2023-05-07T22:06:52.310Z,65.21
2023-05-07T22:09:21.228Z,64.65
2023-05-07T22:11:50.356Z,64.40
2023-05-07T22:14:21.708Z,64.15
2023-05-07T22:16:53.750Z,63.94
2023-05-07T22:19:22.405Z,64.32
2023-05-07T22:21:51.462Z,65.33
2023-05-07T22:24:20.536Z,64.38
2023-05-07T22:26:49.875Z,64.67
2023-05-07T22:29:21.960Z,64.27
2023-05-07T22:31:50.405Z,64.30
2023-05-07T22:34:19.387Z,63.76
2023-05-07T22:36:47.926Z,63.63
2023-05-07T22:39:16.558Z,64.48
2023-05-07T22:41:45.548Z,64.18
2023-05-07T22:44:14.554Z,64.57
2023-05-07T22:46:44.530Z,64.61
2023-05-07T22:49:13.522Z,64.09
2023-05-07T22:51:42.360Z,64.38
2023-05-07T22:54:11.351Z,64.74
2023-05-07T22:56:41.324Z,63.91
2023-05-07T22:59:10.240Z,64.55
2023-05-07T23:01:41.912Z,64.19
2023-05-07T23:04:12.189Z,63.92
2023-05-07T23:06:41.648Z,64.77
2023-05-07T23:09:10.245Z,64.63
2023-05-07T23:11:39.733Z,63.63
2023-05-07T23:14:08.635Z,64.48
2023-05-07T23:16:37.534Z,64.07
2023-05-07T23:19:06.862Z,64.20
2023-05-07T23:21:37.232Z,64.62
2023-05-07T23:24:06.513Z,64.07
2023-05-07T23:26:39.622Z,64.78
2023-05-07T23:29:08.546Z,64.44
2023-05-07T23:31:39.826Z,64.52
2023-05-07T23:34:08.785Z,64.69
2023-05-07T23:36:38.686Z,64.92
2023-05-07T23:39:07.030Z,64.24
2023-05-07T23:41:36.027Z,65.05
2023-05-07T23:44:04.447Z,64.73
2023-05-07T23:46:33.313Z,65.21
2023-05-07T23:49:02.241Z,66.08
2023-05-07T23:51:31.332Z,66.08
2023-05-07T23:54:01.414Z,66.63
2023-05-07T23:56:30.168Z,66.24
2023-05-07T23:58:58.641Z,66.53
